Terminal Aerodrome Forecast
Issued by NWS

Home | Current Version | Previous Version | Graphics & Text | Print | Product List | Glossary On
Versions: 1 2 3 4 5 6 7 8 9 10 11 12 13 14 15 16 17 18
195
FTUS43 KICT 281737
TAFRSL
TAF
KRSL 281737Z 2818/2918 21020G30KT P6SM FEW070
     FM290000 16012KT P6SM VCTS SCT070CB OVC250
     FM290700 VRB05KT P6SM SCT090 BKN200
     FM291000 06012KT P6SM SCT090 BKN200
     FM291400 13010KT P6SM FEW090 SCT140=

USA.gov is the U.S. government's official web portal to all federal, state and local government web resources and services.